Pagrindinis puslapis
METAR-TAF:

METAR-TAF

Oro uostai :

Sučava, Rumunija

platuma: 47-39N, ilguma: 026-15E, Aukštis: 351 m

Dabartinis oras

Ataskaita buvo paskelbta 35 minutes, ne 03:00 UTC
Vėjas 2 kt iš Vakarų/Pietvakarių
Temperatūra -14°C
Drėgmė 85%
Slėgis 1018 hPa
Matomumas: 8000 m

METAR: LRSV 190300Z 24002KT 8000 NSC M14/M16 Q1018 R16/490493

Laikas: 05:35 (03:35 UTC)

Prognozė

Ataskaita buvo paskelbta 1 valandą ir 35 minutes, ne 02:00 UTC
Prognozė galioja nuo 19 metu 03 UTC su 19 metu 12 UTC
Vėjas 4 kt nuo kintamojo kryptimis
Matomumas 10 km arba daugiau
nėra debesų žemiau 1500 m ir nėra kamuolinių lietaus debesų
Laikinai
nuo 19 metu 03 UTC su 19 metu 05 UTC
Matomumas: 3000 m
rūkana

TAF: LRSV 190200Z 1903/1912 VRB04KT CAVOK TEMPO 1903/1905 3000 BR

Orai ataskaitas ir orų prognozės (METAR, TAF).

turimą stotys yra geltonos ir raudonos taškus žemėlapyje.

Perkelti pele per norėdami pamatyti stoties vardą.

Tada spustelėkite, norėdami matyti oro stebėjimo ir prognozės.

Norėdami pakeisti žemėlapį: spustelėkite ant žalios mygtukų su juodo kryžiaus žemyn,; žalią mygtuką su brūkšneliu, jei norite nutolinti; arba žalių rodyklių gretimoms žemėlapius.


METAR-TAF: